createdAt,value
2022-08-26T00:01:54.113Z,5.20
2022-08-26T00:04:23.418Z,4.53
2022-08-26T00:06:50.350Z,4.70
2022-08-26T00:09:17.164Z,5.18
2022-08-26T00:11:44.788Z,4.75
2022-08-26T00:14:13.673Z,5.07
2022-08-26T00:16:47.466Z,4.45
2022-08-26T00:19:16.134Z,4.90
2022-08-26T00:21:43.385Z,5.18
2022-08-26T00:24:10.338Z,5.20
2022-08-26T00:26:37.435Z,5.10
2022-08-26T00:29:04.434Z,4.95
2022-08-26T00:31:31.970Z,5.53
2022-08-26T00:33:59.123Z,5.10
2022-08-26T00:36:29.603Z,5.25
2022-08-26T00:38:57.328Z,5.40
2022-08-26T00:41:24.010Z,5.05
2022-08-26T00:43:51.664Z,5.18
2022-08-26T00:46:26.842Z,5.03
2022-08-26T00:49:02.987Z,5.20
2022-08-26T00:51:30.792Z,5.18
2022-08-26T00:54:05.573Z,4.63
2022-08-26T00:56:38.108Z,5.00
2022-08-26T00:59:11.318Z,4.95
2022-08-26T01:01:41.228Z,4.90
2022-08-26T01:04:09.512Z,5.40
2022-08-26T01:06:36.574Z,5.05
2022-08-26T01:09:04.163Z,5.65
2022-08-26T01:11:32.111Z,5.20
2022-08-26T01:14:02.296Z,5.75
2022-08-26T01:16:30.174Z,4.55
2022-08-26T01:19:03.747Z,5.28
2022-08-26T01:21:56.536Z,5.28
2022-08-26T01:24:27.487Z,5.07
2022-08-26T01:26:58.511Z,5.10
2022-08-26T01:29:27.866Z,4.63
2022-08-26T01:31:56.937Z,5.35
2022-08-26T01:34:27.613Z,5.50
2022-08-26T01:37:05.453Z,5.43
2022-08-26T01:39:33.677Z,5.03
2022-08-26T01:42:03.222Z,4.95
2022-08-26T01:44:38.976Z,5.35
2022-08-26T01:47:07.762Z,5.28
2022-08-26T01:49:37.163Z,5.28
2022-08-26T01:52:05.750Z,5.25
2022-08-26T01:54:33.458Z,5.47
2022-08-26T01:57:02.504Z,5.28
2022-08-26T01:59:30.164Z,5.10
2022-08-26T02:01:57.311Z,5.35
2022-08-26T02:04:34.595Z,5.22
2022-08-26T02:07:06.470Z,6.13
2022-08-26T02:09:41.088Z,5.72
2022-08-26T02:12:10.691Z,5.45
2022-08-26T02:14:43.817Z,6.40
2022-08-26T02:17:11.597Z,5.65
2022-08-26T02:19:41.726Z,5.53
2022-08-26T02:22:14.040Z,6.20
2022-08-26T02:24:55.879Z,5.60
2022-08-26T02:27:31.972Z,5.50
2022-08-26T02:30:08.266Z,5.28
2022-08-26T02:32:35.018Z,5.57
2022-08-26T02:35:02.045Z,5.07
2022-08-26T02:37:31.207Z,4.80
2022-08-26T02:39:58.283Z,6.05
2022-08-26T02:42:25.181Z,5.60
2022-08-26T02:44:51.882Z,5.43
2022-08-26T02:47:18.546Z,5.72
2022-08-26T02:49:47.439Z,5.57
2022-08-26T02:52:14.527Z,5.72
2022-08-26T02:54:41.398Z,5.38
2022-08-26T02:57:08.332Z,5.47
2022-08-26T02:59:36.133Z,5.70
2022-08-26T03:02:03.278Z,5.78
2022-08-26T03:04:33.494Z,5.70
2022-08-26T03:07:00.203Z,6.13
2022-08-26T03:09:27.208Z,6.32
2022-08-26T03:11:55.343Z,6.10
2022-08-26T03:14:24.074Z,6.45
2022-08-26T03:16:54.010Z,6.13
2022-08-26T03:19:23.781Z,5.85
2022-08-26T03:21:51.699Z,5.85
2022-08-26T03:24:19.276Z,6.25
2022-08-26T03:26:52.334Z,6.40
2022-08-26T03:29:39.046Z,7.28
2022-08-26T03:32:06.181Z,6.30
2022-08-26T03:34:33.398Z,7.78
2022-08-26T03:37:00.211Z,9.63
2022-08-26T03:39:27.457Z,7.10
2022-08-26T03:41:58.817Z,6.82
2022-08-26T03:44:25.554Z,6.28
2022-08-26T03:46:52.404Z,6.32
2022-08-26T03:49:19.149Z,6.68
2022-08-26T03:51:45.863Z,6.55
2022-08-26T03:54:12.802Z,6.82
2022-08-26T03:56:40.106Z,6.82
2022-08-26T03:59:07.644Z,6.45
2022-08-26T04:01:35.339Z,6.57
2022-08-26T04:04:02.310Z,6.90
2022-08-26T04:06:32.700Z,6.30
2022-08-26T04:09:02.475Z,6.93
2022-08-26T04:11:34.133Z,6.60
2022-08-26T04:14:04.966Z,7.35
2022-08-26T04:16:32.890Z,7.18
2022-08-26T04:18:59.815Z,6.93
2022-08-26T04:21:27.680Z,6.40
2022-08-26T04:23:55.995Z,6.88
2022-08-26T04:26:25.403Z,5.90
2022-08-26T04:28:55.791Z,6.95
2022-08-26T04:31:22.965Z,6.70
2022-08-26T04:33:50.772Z,7.15
2022-08-26T04:36:19.819Z,6.85
2022-08-26T04:38:47.317Z,7.32
2022-08-26T04:41:14.841Z,7.72
2022-08-26T04:43:42.057Z,7.65
2022-08-26T04:46:09.662Z,7.78
2022-08-26T04:48:40.919Z,6.85
2022-08-26T04:51:09.160Z,7.57
2022-08-26T04:53:36.968Z,7.90
2022-08-26T04:56:04.444Z,7.55
2022-08-26T04:58:31.603Z,8.65
2022-08-26T05:00:58.564Z,7.15
2022-08-26T05:03:27.311Z,8.45
2022-08-26T05:05:57.910Z,7.53
2022-08-26T05:08:24.806Z,8.00
2022-08-26T05:10:55.871Z,8.00
2022-08-26T05:13:24.949Z,7.55
2022-08-26T05:15:51.744Z,7.50
2022-08-26T05:18:22.696Z,8.43
2022-08-26T05:20:54.581Z,7.57
2022-08-26T05:23:22.920Z,8.05
2022-08-26T05:25:54.685Z,9.00
2022-08-26T05:28:23.824Z,8.25
2022-08-26T05:30:51.341Z,8.55
2022-08-26T05:33:18.972Z,9.00
2022-08-26T05:35:46.438Z,9.20
2022-08-26T05:38:18.617Z,10.23
2022-08-26T05:40:49.134Z,10.43
2022-08-26T05:43:20.384Z,8.38
2022-08-26T05:45:49.371Z,8.32
2022-08-26T05:48:19.094Z,8.32
2022-08-26T05:50:52.692Z,8.93
2022-08-26T05:53:21.771Z,8.48
2022-08-26T05:55:51.778Z,9.82
2022-08-26T05:58:20.861Z,8.93
2022-08-26T06:04:02.005Z,9.10
2022-08-26T06:06:32.488Z,8.73
2022-08-26T06:09:01.388Z,8.38
2022-08-26T06:11:32.224Z,8.30
2022-08-26T06:14:03.788Z,8.45
2022-08-26T06:16:34.896Z,8.27
2022-08-26T06:19:03.506Z,8.27
2022-08-26T06:21:40.220Z,9.07
2022-08-26T06:24:28.617Z,8.32
2022-08-26T06:26:58.525Z,8.45
2022-08-26T06:29:26.712Z,7.93
2022-08-26T06:31:56.508Z,8.25
2022-08-26T06:34:29.646Z,9.02
2022-08-26T06:36:59.736Z,8.85
2022-08-26T06:39:28.414Z,8.50
2022-08-26T06:41:58.997Z,9.85
2022-08-26T06:44:27.533Z,8.63
2022-08-26T06:46:55.185Z,9.18
2022-08-26T06:49:26.689Z,9.27
2022-08-26T06:51:55.441Z,8.13
2022-08-26T06:54:22.370Z,8.02
2022-08-26T06:56:49.921Z,8.85
2022-08-26T06:59:17.888Z,7.55
2022-08-26T07:01:45.496Z,8.05
2022-08-26T07:04:20.200Z,7.72
2022-08-26T07:09:41.935Z,9.30
2022-08-26T07:12:09.705Z,8.43
2022-08-26T07:14:38.576Z,7.60
2022-08-26T07:17:10.060Z,8.35
2022-08-26T07:19:39.328Z,7.88
2022-08-26T07:22:07.199Z,7.35
2022-08-26T07:24:39.056Z,8.32
2022-08-26T07:27:09.594Z,8.20
2022-08-26T07:29:37.956Z,8.15
2022-08-26T07:32:06.128Z,8.60
2022-08-26T07:34:34.208Z,8.45
2022-08-26T07:37:02.033Z,7.72
2022-08-26T07:39:31.417Z,7.90
2022-08-26T07:42:00.360Z,8.35
2022-08-26T07:44:28.128Z,8.35
2022-08-26T07:46:55.380Z,7.65
2022-08-26T07:49:24.070Z,8.38
2022-08-26T07:51:51.543Z,7.43
2022-08-26T07:54:18.974Z,8.20
2022-08-26T07:56:52.576Z,7.22
2022-08-26T07:59:20.242Z,8.30
2022-08-26T08:01:50.102Z,8.65
2022-08-26T08:04:20.940Z,6.95
2022-08-26T08:06:52.782Z,8.00
2022-08-26T08:09:19.897Z,7.38
2022-08-26T08:11:49.909Z,7.93
2022-08-26T08:14:18.606Z,7.93
2022-08-26T08:16:49.153Z,8.07
2022-08-26T08:19:21.496Z,8.15
2022-08-26T08:21:48.757Z,7.18
2022-08-26T08:24:16.226Z,7.63
2022-08-26T08:26:43.254Z,8.07
2022-08-26T08:29:10.205Z,8.00
2022-08-26T08:31:57.025Z,8.25
2022-08-26T08:34:29.411Z,8.38
2022-08-26T08:36:57.590Z,7.55
2022-08-26T08:39:26.452Z,6.70
2022-08-26T08:42:19.296Z,7.30
2022-08-26T08:44:55.262Z,8.13
2022-08-26T08:47:37.558Z,8.00
2022-08-26T08:50:33.995Z,6.97
2022-08-26T08:53:13.123Z,8.23
2022-08-26T08:56:16.417Z,7.80
2022-08-26T08:58:57.604Z,8.52
2022-08-26T09:01:54.058Z,7.57
2022-08-26T09:08:11.252Z,8.95
2022-08-26T09:10:44.687Z,7.93
2022-08-26T09:16:23.042Z,8.52
2022-08-26T09:19:15.243Z,9.07
2022-08-26T09:24:48.471Z,8.93
2022-08-26T09:27:50.451Z,8.55
2022-08-26T09:33:19.450Z,8.60
2022-08-26T09:35:48.948Z,8.30
2022-08-26T09:38:26.695Z,7.40
2022-08-26T09:44:04.676Z,8.02
2022-08-26T09:46:33.150Z,7.63
2022-08-26T09:52:27.765Z,7.93
2022-08-26T09:57:34.606Z,7.75
2022-08-26T10:00:02.812Z,7.97
2022-08-26T10:02:38.576Z,9.18
2022-08-26T10:05:10.431Z,8.90
2022-08-26T10:07:48.819Z,8.27
2022-08-26T10:10:27.158Z,8.95
2022-08-26T10:12:57.685Z,8.13
2022-08-26T10:15:26.493Z,8.25
2022-08-26T10:18:06.361Z,8.57
2022-08-26T10:20:38.056Z,9.15
2022-08-26T10:23:23.302Z,9.15
2022-08-26T10:26:08.632Z,9.07
2022-08-26T10:28:47.405Z,8.80
2022-08-26T10:31:27.885Z,9.32
2022-08-26T10:33:58.839Z,8.75
2022-08-26T10:37:10.568Z,10.13
2022-08-26T10:39:36.466Z,11.80
2022-08-26T10:42:10.086Z,11.25
2022-08-26T10:44:41.313Z,12.43
2022-08-26T10:47:18.516Z,11.52
2022-08-26T10:49:49.142Z,11.45
2022-08-26T10:52:45.642Z,11.52
2022-08-26T10:55:22.149Z,12.82
2022-08-26T10:58:38.647Z,13.93
2022-08-26T11:01:40.746Z,13.65
2022-08-26T11:04:07.638Z,14.20
2022-08-26T11:06:34.507Z,12.82
2022-08-26T11:09:07.283Z,13.52
2022-08-26T11:11:40.364Z,12.10
2022-08-26T11:17:12.562Z,13.80
2022-08-26T11:20:00.768Z,14.52
2022-08-26T11:25:30.206Z,15.23
2022-08-26T11:28:00.758Z,14.02
2022-08-26T11:30:43.382Z,13.82
2022-08-26T11:33:36.631Z,15.95
2022-08-26T11:36:12.079Z,14.80
2022-08-26T11:38:43.118Z,14.50
2022-08-26T11:41:17.222Z,12.52
2022-08-26T11:43:45.938Z,15.32
2022-08-26T11:46:23.910Z,14.27
2022-08-26T11:51:51.696Z,17.83
2022-08-26T11:54:32.714Z,18.05
2022-08-26T11:57:09.425Z,14.98
2022-08-26T11:59:41.412Z,17.02
2022-08-26T12:02:17.847Z,14.15
2022-08-26T12:04:49.532Z,14.02
2022-08-26T12:07:24.094Z,16.23
2022-08-26T12:09:56.284Z,16.60
2022-08-26T12:12:44.976Z,14.07
2022-08-26T12:15:19.314Z,13.05
2022-08-26T12:17:52.953Z,15.63
2022-08-26T12:23:40.783Z,15.77
2022-08-26T12:26:28.938Z,15.32
2022-08-26T12:32:19.731Z,10.60
2022-08-26T12:34:49.214Z,10.18
2022-08-26T12:37:16.785Z,10.70
2022-08-26T12:39:48.568Z,13.25
2022-08-26T12:45:08.126Z,13.32
2022-08-26T12:47:44.147Z,12.13
2022-08-26T12:50:19.633Z,12.60
2022-08-26T12:53:21.801Z,13.57
2022-08-26T12:59:23.949Z,14.50
2022-08-26T13:01:53.042Z,14.70
2022-08-26T13:04:41.956Z,13.98
2022-08-26T13:10:09.778Z,13.90
2022-08-26T13:12:37.305Z,13.25
2022-08-26T13:15:06.204Z,11.95
2022-08-26T13:22:31.787Z,18.88
2022-08-26T13:24:58.976Z,18.67
2022-08-26T13:27:27.470Z,16.05
2022-08-26T13:29:57.264Z,17.58
2022-08-26T13:32:27.487Z,16.73
2022-08-26T13:34:56.600Z,16.38
2022-08-26T13:37:34.586Z,15.93
2022-08-26T13:42:58.278Z,16.40
2022-08-26T13:45:25.525Z,15.25
2022-08-26T13:47:52.471Z,19.27
2022-08-26T13:50:19.516Z,19.40
2022-08-26T13:52:46.670Z,19.83
2022-08-26T13:55:13.521Z,19.95
2022-08-26T14:00:33.758Z,18.85
2022-08-26T14:03:01.219Z,15.07
2022-08-26T14:05:29.580Z,14.32
2022-08-26T14:08:00.463Z,13.68
2022-08-26T14:10:28.359Z,13.48
2022-08-26T14:12:56.839Z,12.80
2022-08-26T14:15:23.989Z,14.20
2022-08-26T14:17:52.173Z,14.13
2022-08-26T14:20:31.402Z,13.77
2022-08-26T14:25:50.063Z,15.95
2022-08-26T14:28:17.653Z,15.55
2022-08-26T14:30:54.975Z,15.30
2022-08-26T14:36:37.878Z,16.73
2022-08-26T14:39:09.271Z,17.38
2022-08-26T14:44:46.936Z,17.00
2022-08-26T14:47:15.315Z,17.02
2022-08-26T14:49:43.475Z,17.17
2022-08-26T14:52:11.036Z,19.23
2022-08-26T14:54:39.252Z,19.75
2022-08-26T14:57:15.796Z,20.50
2022-08-26T14:59:49.860Z,20.47
2022-08-26T15:02:33.776Z,20.58
2022-08-26T15:05:22.180Z,21.85
2022-08-26T15:07:56.924Z,22.20
2022-08-26T15:10:24.984Z,22.88
2022-08-26T15:12:56.146Z,20.15
2022-08-26T15:15:26.181Z,19.92
2022-08-26T15:17:55.276Z,20.02
2022-08-26T15:20:23.080Z,19.17
2022-08-26T15:26:08.796Z,18.00
2022-08-26T15:31:59.613Z,16.75
2022-08-26T15:34:27.012Z,17.63
2022-08-26T15:36:54.158Z,16.70
2022-08-26T15:39:21.694Z,16.25
2022-08-26T15:41:48.636Z,16.17
2022-08-26T15:44:17.110Z,16.98
2022-08-26T15:46:44.460Z,15.70
2022-08-26T15:49:17.542Z,16.20
2022-08-26T15:51:47.057Z,16.55
2022-08-26T15:54:19.933Z,16.00
2022-08-26T15:56:50.473Z,16.90
2022-08-26T15:59:17.412Z,17.27
2022-08-26T16:01:44.919Z,17.50
2022-08-26T16:04:12.531Z,18.60
2022-08-26T16:06:40.912Z,17.60
2022-08-26T16:09:11.153Z,19.70
2022-08-26T16:11:38.180Z,20.27
2022-08-26T16:14:05.534Z,21.35
2022-08-26T16:16:32.751Z,21.73
2022-08-26T16:19:01.355Z,22.55
2022-08-26T16:21:31.491Z,23.98
2022-08-26T16:23:58.542Z,25.65
2022-08-26T16:26:29.578Z,25.25
2022-08-26T16:28:56.420Z,27.50
2022-08-26T16:31:23.422Z,29.80
2022-08-26T16:33:51.335Z,29.88
2022-08-26T16:36:18.173Z,35.75
2022-08-26T16:41:44.433Z,36.03
2022-08-26T16:44:11.995Z,38.17
2022-08-26T16:46:39.722Z,37.00
2022-08-26T16:49:06.793Z,39.88
2022-08-26T16:51:38.086Z,40.72
2022-08-26T16:54:07.050Z,40.88
2022-08-26T16:56:34.647Z,40.78
2022-08-26T16:59:04.314Z,41.03
2022-08-26T17:01:31.323Z,39.15
2022-08-26T17:06:49.014Z,38.92
2022-08-26T17:09:16.252Z,39.10
2022-08-26T17:11:43.806Z,37.08
2022-08-26T17:14:10.765Z,36.90
2022-08-26T17:16:38.360Z,37.55
2022-08-26T17:19:06.178Z,38.08
2022-08-26T17:21:35.478Z,36.05
2022-08-26T17:24:04.176Z,38.53
2022-08-26T17:26:31.286Z,36.55
2022-08-26T17:28:58.563Z,35.90
2022-08-26T17:31:25.669Z,36.80
2022-08-26T17:33:54.245Z,35.42
2022-08-26T17:36:23.301Z,34.37
2022-08-26T17:38:55.666Z,38.00
2022-08-26T17:41:22.611Z,34.33
2022-08-26T17:43:49.837Z,33.17
2022-08-26T17:46:16.843Z,35.88
2022-08-26T17:48:43.846Z,33.83
2022-08-26T17:51:16.855Z,34.38
2022-08-26T17:53:44.200Z,31.90
2022-08-26T17:56:13.593Z,31.27
2022-08-26T17:58:51.166Z,31.73
2022-08-26T18:01:20.269Z,28.63
2022-08-26T18:03:47.585Z,29.30
2022-08-26T18:06:15.216Z,28.42
2022-08-26T18:08:42.561Z,28.10
2022-08-26T18:11:12.055Z,27.55
2022-08-26T18:13:47.062Z,28.17
2022-08-26T18:16:15.553Z,26.70
2022-08-26T18:18:43.238Z,30.15
2022-08-26T18:21:20.320Z,27.23
2022-08-26T18:23:48.084Z,26.17
2022-08-26T18:29:20.575Z,26.42
2022-08-26T18:31:48.682Z,27.10
2022-08-26T18:34:19.584Z,25.48
2022-08-26T18:36:46.838Z,25.00
2022-08-26T18:39:15.215Z,25.17
2022-08-26T18:41:45.026Z,25.23
2022-08-26T18:44:14.638Z,24.73
2022-08-26T18:46:42.500Z,25.02
2022-08-26T18:49:12.416Z,25.17
2022-08-26T18:51:39.880Z,23.73
2022-08-26T18:54:07.811Z,23.08
2022-08-26T18:56:36.730Z,24.35
2022-08-26T18:59:05.322Z,22.55
2022-08-26T19:01:33.769Z,21.87
2022-08-26T19:04:02.914Z,22.50
2022-08-26T19:06:32.929Z,22.00
2022-08-26T19:09:00.977Z,21.30
2022-08-26T19:11:31.115Z,21.42
2022-08-26T19:13:59.170Z,20.13
2022-08-26T19:16:27.276Z,21.15
2022-08-26T19:18:55.006Z,21.52
2022-08-26T19:21:23.178Z,20.30
2022-08-26T19:23:50.942Z,21.17
2022-08-26T19:26:18.607Z,21.33
2022-08-26T19:28:45.783Z,21.40
2022-08-26T19:31:13.063Z,19.50
2022-08-26T19:33:42.313Z,19.02
2022-08-26T19:36:15.905Z,18.92
2022-08-26T19:38:43.369Z,29.77
2022-08-26T19:41:19.422Z,59.17
2022-08-26T19:43:46.983Z,110.00
2022-08-26T19:46:20.254Z,77.63
2022-08-26T19:48:47.983Z,22.50
2022-08-26T19:51:24.746Z,18.58
2022-08-26T19:53:52.683Z,40.28
2022-08-26T19:56:20.797Z,24.30
2022-08-26T19:58:48.310Z,17.92
2022-08-26T20:01:16.324Z,19.48
2022-08-26T20:03:43.967Z,21.63
2022-08-26T20:09:03.019Z,18.50
2022-08-26T20:11:29.877Z,19.83
2022-08-26T20:13:57.418Z,19.45
2022-08-26T20:16:24.614Z,18.77
2022-08-26T20:19:10.379Z,20.45
2022-08-26T20:21:39.121Z,19.98
2022-08-26T20:24:09.063Z,19.97
2022-08-26T20:26:38.671Z,19.15
2022-08-26T20:29:07.363Z,20.38
2022-08-26T20:31:35.471Z,17.77
2022-08-26T20:34:02.878Z,18.30
2022-08-26T20:36:30.233Z,18.40
2022-08-26T20:38:57.796Z,17.77
2022-08-26T20:41:26.274Z,18.45
2022-08-26T20:43:54.046Z,17.30
2022-08-26T20:46:24.728Z,17.40
2022-08-26T20:48:53.343Z,16.80
2022-08-26T20:51:21.733Z,17.20
2022-08-26T20:53:48.675Z,17.65
2022-08-26T20:56:16.954Z,18.73
2022-08-26T20:58:43.896Z,16.60
2022-08-26T21:01:19.176Z,17.40
2022-08-26T21:03:46.572Z,18.67
2022-08-26T21:06:13.853Z,18.95
2022-08-26T21:08:42.660Z,16.50
2022-08-26T21:14:03.533Z,17.90
2022-08-26T21:16:26.273Z,17.77
2022-08-26T21:18:53.455Z,17.83
2022-08-26T21:21:25.128Z,17.38
2022-08-26T21:23:52.358Z,30.60
2022-08-26T21:26:19.616Z,36.33
2022-08-26T21:28:47.585Z,21.80
2022-08-26T21:31:18.492Z,36.47
2022-08-26T21:33:45.663Z,18.33
2022-08-26T21:36:13.643Z,18.90
2022-08-26T21:38:41.704Z,17.58
2022-08-26T21:41:15.215Z,16.73
2022-08-26T21:43:43.282Z,17.42
2022-08-26T21:46:14.506Z,19.17
2022-08-26T21:48:51.019Z,15.43
2022-08-26T21:54:12.224Z,16.55
2022-08-26T21:56:46.553Z,16.40
2022-08-26T21:59:15.837Z,16.95
2022-08-26T22:01:42.791Z,16.13
2022-08-26T22:04:10.449Z,17.65
2022-08-26T22:06:57.680Z,16.88
2022-08-26T22:09:31.384Z,16.42
2022-08-26T22:12:00.060Z,14.95
2022-08-26T22:14:30.738Z,15.97
2022-08-26T22:16:59.434Z,14.13
2022-08-26T22:19:26.420Z,16.00
2022-08-26T22:21:55.417Z,15.02
2022-08-26T22:24:25.124Z,16.92
2022-08-26T22:26:53.299Z,16.17
2022-08-26T22:29:20.140Z,16.33
2022-08-26T22:31:47.230Z,15.82
2022-08-26T22:34:21.199Z,15.52
2022-08-26T22:36:49.391Z,15.15
2022-08-26T22:39:20.423Z,14.20
2022-08-26T22:41:48.831Z,13.93
2022-08-26T22:44:17.375Z,15.35
2022-08-26T22:46:48.135Z,14.70
2022-08-26T22:49:16.688Z,14.57
2022-08-26T22:51:45.479Z,16.42
2022-08-26T22:54:13.256Z,28.60
2022-08-26T22:56:41.310Z,53.00
2022-08-26T22:59:09.591Z,21.48
2022-08-26T23:01:40.051Z,17.75
2022-08-26T23:04:08.006Z,30.13
2022-08-26T23:06:39.650Z,16.88
2022-08-26T23:09:08.444Z,18.55
2022-08-26T23:11:35.782Z,18.50
2022-08-26T23:14:06.610Z,15.63
2022-08-26T23:16:39.455Z,15.05
2022-08-26T23:19:06.447Z,15.52
2022-08-26T23:21:33.417Z,14.20
2022-08-26T23:24:00.994Z,14.30
2022-08-26T23:26:28.436Z,13.60
2022-08-26T23:28:55.632Z,15.75
2022-08-26T23:31:22.384Z,14.15
2022-08-26T23:34:07.924Z,14.32
2022-08-26T23:36:34.980Z,12.57
2022-08-26T23:39:03.937Z,14.35
2022-08-26T23:41:31.020Z,14.07
2022-08-26T23:44:02.829Z,13.57
2022-08-26T23:46:30.609Z,14.18
2022-08-26T23:48:57.307Z,13.48
2022-08-26T23:51:42.857Z,13.15
2022-08-26T23:54:13.071Z,13.90
2022-08-26T23:56:40.001Z,14.15
2022-08-26T23:59:07.207Z,13.07
